sensor_id;sensor_type;location;lat;lon;timestamp;temperature;humidity
2577;DHT22;1298;51.252;6.802;2023-06-22T00:02:02;22.80;99.90
2577;DHT22;1298;51.252;6.802;2023-06-22T00:04:47;22.80;99.90
2577;DHT22;1298;51.252;6.802;2023-06-22T00:07:32;22.70;99.90
2577;DHT22;1298;51.252;6.802;2023-06-22T00:10:17;22.70;99.90
2577;DHT22;1298;51.252;6.802;2023-06-22T00:13:04;22.70;99.90
2577;DHT22;1298;51.252;6.802;2023-06-22T00:15:50;22.80;99.90
2577;DHT22;1298;51.252;6.802;2023-06-22T00:18:35;22.80;99.90
2577;DHT22;1298;51.252;6.802;2023-06-22T00:21:21;22.70;99.90
2577;DHT22;1298;51.252;6.802;2023-06-22T00:24:06;22.70;99.90
2577;DHT22;1298;51.252;6.802;2023-06-22T00:26:51;22.70;99.90
2577;DHT22;1298;51.252;6.802;2023-06-22T00:29:38;22.70;99.90
2577;DHT22;1298;51.252;6.802;2023-06-22T00:32:23;22.60;99.90
2577;DHT22;1298;51.252;6.802;2023-06-22T00:35:08;22.70;99.90
2577;DHT22;1298;51.252;6.802;2023-06-22T00:37:54;22.70;99.90
2577;DHT22;1298;51.252;6.802;2023-06-22T00:40:44;22.70;99.90
2577;DHT22;1298;51.252;6.802;2023-06-22T00:43:29;22.60;99.90
2577;DHT22;1298;51.252;6.802;2023-06-22T00:46:16;22.50;99.90
2577;DHT22;1298;51.252;6.802;2023-06-22T00:49:01;22.50;99.90
2577;DHT22;1298;51.252;6.802;2023-06-22T00:51:49;22.40;99.90
2577;DHT22;1298;51.252;6.802;2023-06-22T00:54:34;22.40;99.90
2577;DHT22;1298;51.252;6.802;2023-06-22T00:57:20;22.40;99.90
2577;DHT22;1298;51.252;6.802;2023-06-22T01:00:06;22.30;99.90
2577;DHT22;1298;51.252;6.802;2023-06-22T01:02:54;22.30;99.90
2577;DHT22;1298;51.252;6.802;2023-06-22T01:05:39;22.30;99.90
2577;DHT22;1298;51.252;6.802;2023-06-22T01:08:28;22.20;99.90
2577;DHT22;1298;51.252;6.802;2023-06-22T01:11:16;22.20;99.90
2577;DHT22;1298;51.252;6.802;2023-06-22T01:14:05;22.20;99.90
2577;DHT22;1298;51.252;6.802;2023-06-22T01:16:52;22.20;99.90
2577;DHT22;1298;51.252;6.802;2023-06-22T01:19:43;22.20;99.90
2577;DHT22;1298;51.252;6.802;2023-06-22T01:22:30;22.10;99.90
2577;DHT22;1298;51.252;6.802;2023-06-22T01:25:18;22.10;99.90
2577;DHT22;1298;51.252;6.802;2023-06-22T01:28:05;22.10;99.90
2577;DHT22;1298;51.252;6.802;2023-06-22T01:31:00;22.10;99.90
2577;DHT22;1298;51.252;6.802;2023-06-22T01:33:50;22.10;99.90
2577;DHT22;1298;51.252;6.802;2023-06-22T01:36:35;22.10;99.90
2577;DHT22;1298;51.252;6.802;2023-06-22T01:39:21;22.10;99.90
2577;DHT22;1298;51.252;6.802;2023-06-22T01:42:07;22.00;99.90
2577;DHT22;1298;51.252;6.802;2023-06-22T01:44:53;22.00;99.90
2577;DHT22;1298;51.252;6.802;2023-06-22T01:47:40;22.10;99.90
2577;DHT22;1298;51.252;6.802;2023-06-22T01:50:25;22.10;99.90
2577;DHT22;1298;51.252;6.802;2023-06-22T01:53:11;22.10;99.90
2577;DHT22;1298;51.252;6.802;2023-06-22T01:55:56;22.10;99.90
2577;DHT22;1298;51.252;6.802;2023-06-22T01:58:42;22.00;99.90
2577;DHT22;1298;51.252;6.802;2023-06-22T02:01:31;22.00;99.90
2577;DHT22;1298;51.252;6.802;2023-06-22T02:04:24;22.00;99.90
2577;DHT22;1298;51.252;6.802;2023-06-22T02:07:12;22.00;99.90
2577;DHT22;1298;51.252;6.802;2023-06-22T02:09:59;22.00;99.90
2577;DHT22;1298;51.252;6.802;2023-06-22T02:12:45;22.00;99.90
2577;DHT22;1298;51.252;6.802;2023-06-22T02:15:31;21.90;99.90
2577;DHT22;1298;51.252;6.802;2023-06-22T02:18:17;21.90;99.90
2577;DHT22;1298;51.252;6.802;2023-06-22T02:21:03;21.90;99.90
2577;DHT22;1298;51.252;6.802;2023-06-22T02:23:49;21.90;99.90
2577;DHT22;1298;51.252;6.802;2023-06-22T02:26:34;21.90;99.90
2577;DHT22;1298;51.252;6.802;2023-06-22T02:29:20;21.90;99.90
2577;DHT22;1298;51.252;6.802;2023-06-22T02:32:07;21.90;99.90
2577;DHT22;1298;51.252;6.802;2023-06-22T02:34:52;21.90;99.90
2577;DHT22;1298;51.252;6.802;2023-06-22T02:37:39;21.80;99.90
2577;DHT22;1298;51.252;6.802;2023-06-22T02:40:25;21.80;99.90
2577;DHT22;1298;51.252;6.802;2023-06-22T02:43:10;21.80;99.90
2577;DHT22;1298;51.252;6.802;2023-06-22T02:45:56;21.70;99.90
2577;DHT22;1298;51.252;6.802;2023-06-22T02:48:41;21.70;99.90
2577;DHT22;1298;51.252;6.802;2023-06-22T02:51:26;21.60;99.90
2577;DHT22;1298;51.252;6.802;2023-06-22T02:54:12;21.60;99.90
2577;DHT22;1298;51.252;6.802;2023-06-22T02:56:58;21.50;99.90
2577;DHT22;1298;51.252;6.802;2023-06-22T02:59:46;21.50;99.90
2577;DHT22;1298;51.252;6.802;2023-06-22T03:02:32;21.50;99.90
2577;DHT22;1298;51.252;6.802;2023-06-22T03:05:17;21.50;99.90
2577;DHT22;1298;51.252;6.802;2023-06-22T03:08:03;21.50;99.90
2577;DHT22;1298;51.252;6.802;2023-06-22T03:10:49;21.50;99.90
2577;DHT22;1298;51.252;6.802;2023-06-22T03:13:35;21.50;99.90
2577;DHT22;1298;51.252;6.802;2023-06-22T03:16:20;21.40;99.90
2577;DHT22;1298;51.252;6.802;2023-06-22T03:19:05;21.40;99.90
2577;DHT22;1298;51.252;6.802;2023-06-22T03:21:50;21.40;99.90
2577;DHT22;1298;51.252;6.802;2023-06-22T03:24:35;21.40;99.90
2577;DHT22;1298;51.252;6.802;2023-06-22T03:27:24;21.30;99.90
2577;DHT22;1298;51.252;6.802;2023-06-22T03:30:10;21.30;99.90
2577;DHT22;1298;51.252;6.802;2023-06-22T03:32:55;21.30;99.90
2577;DHT22;1298;51.252;6.802;2023-06-22T03:35:40;21.40;99.90
2577;DHT22;1298;51.252;6.802;2023-06-22T03:38:26;21.40;99.90
2577;DHT22;1298;51.252;6.802;2023-06-22T03:41:11;21.40;99.90
2577;DHT22;1298;51.252;6.802;2023-06-22T03:43:57;21.40;99.90
2577;DHT22;1298;51.252;6.802;2023-06-22T03:46:42;21.40;99.90
2577;DHT22;1298;51.252;6.802;2023-06-22T03:49:27;21.40;99.90
2577;DHT22;1298;51.252;6.802;2023-06-22T03:52:12;21.50;99.90
2577;DHT22;1298;51.252;6.802;2023-06-22T03:54:58;21.40;99.90
2577;DHT22;1298;51.252;6.802;2023-06-22T03:57:43;21.40;99.90
2577;DHT22;1298;51.252;6.802;2023-06-22T04:00:30;21.50;99.90
2577;DHT22;1298;51.252;6.802;2023-06-22T04:03:16;21.50;99.90
2577;DHT22;1298;51.252;6.802;2023-06-22T04:06:02;21.40;99.90
2577;DHT22;1298;51.252;6.802;2023-06-22T04:08:47;21.40;99.90
2577;DHT22;1298;51.252;6.802;2023-06-22T04:11:35;21.40;99.90
2577;DHT22;1298;51.252;6.802;2023-06-22T04:14:20;21.40;99.90
2577;DHT22;1298;51.252;6.802;2023-06-22T04:17:07;21.50;99.90
2577;DHT22;1298;51.252;6.802;2023-06-22T04:19:52;21.50;99.90
2577;DHT22;1298;51.252;6.802;2023-06-22T04:22:37;21.50;99.90
2577;DHT22;1298;51.252;6.802;2023-06-22T04:25:22;21.60;99.90
2577;DHT22;1298;51.252;6.802;2023-06-22T04:28:07;21.50;99.90
2577;DHT22;1298;51.252;6.802;2023-06-22T04:30:56;21.50;99.90
2577;DHT22;1298;51.252;6.802;2023-06-22T04:33:43;21.60;99.90
2577;DHT22;1298;51.252;6.802;2023-06-22T04:36:28;21.60;99.90
2577;DHT22;1298;51.252;6.802;2023-06-22T04:39:14;21.60;99.90
2577;DHT22;1298;51.252;6.802;2023-06-22T04:42:00;21.50;99.90
2577;DHT22;1298;51.252;6.802;2023-06-22T04:44:45;21.50;99.90
2577;DHT22;1298;51.252;6.802;2023-06-22T04:47:30;21.60;99.90
2577;DHT22;1298;51.252;6.802;2023-06-22T04:50:16;21.60;99.90
2577;DHT22;1298;51.252;6.802;2023-06-22T04:53:05;21.60;99.90
2577;DHT22;1298;51.252;6.802;2023-06-22T04:55:51;21.70;99.90
2577;DHT22;1298;51.252;6.802;2023-06-22T04:58:37;21.70;99.90
2577;DHT22;1298;51.252;6.802;2023-06-22T05:01:22;21.70;99.90
2577;DHT22;1298;51.252;6.802;2023-06-22T05:04:07;21.70;99.90
2577;DHT22;1298;51.252;6.802;2023-06-22T05:06:54;21.70;99.90
2577;DHT22;1298;51.252;6.802;2023-06-22T05:09:40;21.80;99.90
2577;DHT22;1298;51.252;6.802;2023-06-22T05:12:25;21.80;99.90
2577;DHT22;1298;51.252;6.802;2023-06-22T05:15:10;21.80;99.90
2577;DHT22;1298;51.252;6.802;2023-06-22T05:17:55;21.80;99.90
2577;DHT22;1298;51.252;6.802;2023-06-22T05:20:42;21.80;99.90
2577;DHT22;1298;51.252;6.802;2023-06-22T05:23:28;21.80;99.90
2577;DHT22;1298;51.252;6.802;2023-06-22T05:26:13;21.80;99.90
2577;DHT22;1298;51.252;6.802;2023-06-22T05:28:58;21.80;99.90
2577;DHT22;1298;51.252;6.802;2023-06-22T05:31:44;21.90;99.90
2577;DHT22;1298;51.252;6.802;2023-06-22T05:34:29;21.90;99.90
2577;DHT22;1298;51.252;6.802;2023-06-22T05:37:15;22.00;99.90
2577;DHT22;1298;51.252;6.802;2023-06-22T05:40:01;22.00;99.90
2577;DHT22;1298;51.252;6.802;2023-06-22T05:42:47;22.00;99.90
2577;DHT22;1298;51.252;6.802;2023-06-22T05:45:32;22.00;99.90
2577;DHT22;1298;51.252;6.802;2023-06-22T05:48:17;22.00;99.90
2577;DHT22;1298;51.252;6.802;2023-06-22T05:51:03;22.00;99.90
2577;DHT22;1298;51.252;6.802;2023-06-22T05:53:48;21.90;99.90
2577;DHT22;1298;51.252;6.802;2023-06-22T05:56:35;22.00;99.90
2577;DHT22;1298;51.252;6.802;2023-06-22T05:59:20;22.00;99.90
2577;DHT22;1298;51.252;6.802;2023-06-22T06:02:05;22.10;99.90
2577;DHT22;1298;51.252;6.802;2023-06-22T06:04:50;22.10;99.90
2577;DHT22;1298;51.252;6.802;2023-06-22T06:07:36;22.20;99.90
2577;DHT22;1298;51.252;6.802;2023-06-22T06:10:22;22.20;99.90
2577;DHT22;1298;51.252;6.802;2023-06-22T06:13:08;22.30;99.90
2577;DHT22;1298;51.252;6.802;2023-06-22T06:15:53;22.40;99.90
2577;DHT22;1298;51.252;6.802;2023-06-22T06:18:39;22.50;99.90
2577;DHT22;1298;51.252;6.802;2023-06-22T06:21:24;22.50;99.90
2577;DHT22;1298;51.252;6.802;2023-06-22T06:24:09;22.50;99.90
2577;DHT22;1298;51.252;6.802;2023-06-22T06:26:55;22.40;99.90
2577;DHT22;1298;51.252;6.802;2023-06-22T06:29:42;22.40;99.90
2577;DHT22;1298;51.252;6.802;2023-06-22T06:32:30;22.40;99.90
2577;DHT22;1298;51.252;6.802;2023-06-22T06:35:15;22.50;99.90
2577;DHT22;1298;51.252;6.802;2023-06-22T06:38:01;22.50;99.90
2577;DHT22;1298;51.252;6.802;2023-06-22T06:40:46;22.60;99.90
2577;DHT22;1298;51.252;6.802;2023-06-22T06:43:32;22.60;99.90
2577;DHT22;1298;51.252;6.802;2023-06-22T06:46:19;22.60;99.90
2577;DHT22;1298;51.252;6.802;2023-06-22T06:49:04;22.60;99.90
2577;DHT22;1298;51.252;6.802;2023-06-22T06:51:50;22.70;99.90
2577;DHT22;1298;51.252;6.802;2023-06-22T06:54:35;22.70;99.90
2577;DHT22;1298;51.252;6.802;2023-06-22T06:57:20;22.80;99.90
2577;DHT22;1298;51.252;6.802;2023-06-22T07:00:07;22.90;99.90
2577;DHT22;1298;51.252;6.802;2023-06-22T07:02:57;22.90;99.90
2577;DHT22;1298;51.252;6.802;2023-06-22T07:05:42;22.90;99.90
2577;DHT22;1298;51.252;6.802;2023-06-22T07:08:28;22.80;99.90
2577;DHT22;1298;51.252;6.802;2023-06-22T07:11:13;22.90;99.90
2577;DHT22;1298;51.252;6.802;2023-06-22T07:13:58;22.80;99.90
2577;DHT22;1298;51.252;6.802;2023-06-22T07:16:45;22.60;99.90
2577;DHT22;1298;51.252;6.802;2023-06-22T07:19:32;22.40;99.90
2577;DHT22;1298;51.252;6.802;2023-06-22T07:22:18;22.40;99.90
2577;DHT22;1298;51.252;6.802;2023-06-22T07:25:04;22.30;99.90
2577;DHT22;1298;51.252;6.802;2023-06-22T07:27:57;22.20;99.90
2577;DHT22;1298;51.252;6.802;2023-06-22T07:30:42;22.20;99.90
2577;DHT22;1298;51.252;6.802;2023-06-22T07:33:28;22.10;99.90
2577;DHT22;1298;51.252;6.802;2023-06-22T07:36:15;22.20;99.90
2577;DHT22;1298;51.252;6.802;2023-06-22T07:39:00;22.20;99.90
2577;DHT22;1298;51.252;6.802;2023-06-22T07:41:46;22.20;99.90
2577;DHT22;1298;51.252;6.802;2023-06-22T07:44:31;22.10;99.90
2577;DHT22;1298;51.252;6.802;2023-06-22T07:47:16;22.00;99.90
2577;DHT22;1298;51.252;6.802;2023-06-22T07:50:02;21.90;99.90
2577;DHT22;1298;51.252;6.802;2023-06-22T07:52:49;22.00;99.90
2577;DHT22;1298;51.252;6.802;2023-06-22T07:55:36;22.10;99.90
2577;DHT22;1298;51.252;6.802;2023-06-22T07:58:21;22.10;99.90
2577;DHT22;1298;51.252;6.802;2023-06-22T08:01:07;22.10;99.90
2577;DHT22;1298;51.252;6.802;2023-06-22T08:03:52;22.30;99.90
2577;DHT22;1298;51.252;6.802;2023-06-22T08:06:37;22.50;99.90
2577;DHT22;1298;51.252;6.802;2023-06-22T08:09:24;22.80;99.90
2577;DHT22;1298;51.252;6.802;2023-06-22T08:12:09;22.90;99.90
2577;DHT22;1298;51.252;6.802;2023-06-22T08:14:55;23.10;99.90
2577;DHT22;1298;51.252;6.802;2023-06-22T08:17:41;23.30;99.90
2577;DHT22;1298;51.252;6.802;2023-06-22T08:20:27;23.40;99.90
2577;DHT22;1298;51.252;6.802;2023-06-22T08:23:12;23.50;99.90
2577;DHT22;1298;51.252;6.802;2023-06-22T08:25:58;23.60;99.90
2577;DHT22;1298;51.252;6.802;2023-06-22T08:28:43;23.90;99.90
2577;DHT22;1298;51.252;6.802;2023-06-22T08:31:28;24.30;99.90
2577;DHT22;1298;51.252;6.802;2023-06-22T08:34:14;24.40;99.90
2577;DHT22;1298;51.252;6.802;2023-06-22T08:36:59;24.70;99.90
2577;DHT22;1298;51.252;6.802;2023-06-22T08:39:44;24.90;99.90
2577;DHT22;1298;51.252;6.802;2023-06-22T08:42:32;25.00;99.90
2577;DHT22;1298;51.252;6.802;2023-06-22T08:45:17;25.40;99.90
2577;DHT22;1298;51.252;6.802;2023-06-22T08:48:02;25.50;99.90
2577;DHT22;1298;51.252;6.802;2023-06-22T08:50:48;25.60;99.90
2577;DHT22;1298;51.252;6.802;2023-06-22T08:53:33;25.50;99.90
2577;DHT22;1298;51.252;6.802;2023-06-22T08:56:18;25.60;99.90
2577;DHT22;1298;51.252;6.802;2023-06-22T08:59:05;25.80;99.90
2577;DHT22;1298;51.252;6.802;2023-06-22T09:01:51;26.30;99.90
2577;DHT22;1298;51.252;6.802;2023-06-22T09:04:36;26.60;99.90
2577;DHT22;1298;51.252;6.802;2023-06-22T09:07:22;26.40;99.90
2577;DHT22;1298;51.252;6.802;2023-06-22T09:10:09;26.40;99.90
2577;DHT22;1298;51.252;6.802;2023-06-22T09:12:54;26.40;99.90
2577;DHT22;1298;51.252;6.802;2023-06-22T09:15:41;26.40;99.90
2577;DHT22;1298;51.252;6.802;2023-06-22T09:18:26;26.30;99.90
2577;DHT22;1298;51.252;6.802;2023-06-22T09:21:11;26.40;99.90
2577;DHT22;1298;51.252;6.802;2023-06-22T09:23:56;26.50;99.90
2577;DHT22;1298;51.252;6.802;2023-06-22T09:26:42;26.50;99.90
2577;DHT22;1298;51.252;6.802;2023-06-22T09:29:27;26.70;99.90
2577;DHT22;1298;51.252;6.802;2023-06-22T09:32:13;26.80;99.90
2577;DHT22;1298;51.252;6.802;2023-06-22T09:34:58;26.90;99.90
2577;DHT22;1298;51.252;6.802;2023-06-22T09:37:43;26.90;99.90
2577;DHT22;1298;51.252;6.802;2023-06-22T09:40:29;27.10;99.90
2577;DHT22;1298;51.252;6.802;2023-06-22T09:43:16;27.20;99.90
2577;DHT22;1298;51.252;6.802;2023-06-22T09:46:02;27.40;99.90
2577;DHT22;1298;51.252;6.802;2023-06-22T09:48:48;27.60;99.90
2577;DHT22;1298;51.252;6.802;2023-06-22T09:51:34;27.60;99.90
2577;DHT22;1298;51.252;6.802;2023-06-22T09:54:19;27.80;99.90
2577;DHT22;1298;51.252;6.802;2023-06-22T09:57:04;27.90;99.90
2577;DHT22;1298;51.252;6.802;2023-06-22T09:59:49;28.20;99.90
2577;DHT22;1298;51.252;6.802;2023-06-22T10:02:34;28.40;99.90
2577;DHT22;1298;51.252;6.802;2023-06-22T10:05:20;28.40;99.90
2577;DHT22;1298;51.252;6.802;2023-06-22T10:08:06;28.50;99.90
2577;DHT22;1298;51.252;6.802;2023-06-22T10:10:54;28.60;99.90
2577;DHT22;1298;51.252;6.802;2023-06-22T10:13:39;28.60;99.90
2577;DHT22;1298;51.252;6.802;2023-06-22T10:16:29;28.70;99.90
2577;DHT22;1298;51.252;6.802;2023-06-22T10:19:15;28.60;99.90
2577;DHT22;1298;51.252;6.802;2023-06-22T10:22:01;28.60;99.90
2577;DHT22;1298;51.252;6.802;2023-06-22T10:24:46;28.80;99.90
2577;DHT22;1298;51.252;6.802;2023-06-22T10:27:31;28.50;99.90
2577;DHT22;1298;51.252;6.802;2023-06-22T10:30:17;28.20;99.90
2577;DHT22;1298;51.252;6.802;2023-06-22T10:33:02;28.10;99.90
2577;DHT22;1298;51.252;6.802;2023-06-22T10:35:47;27.80;99.90
2577;DHT22;1298;51.252;6.802;2023-06-22T10:38:34;27.50;99.90
2577;DHT22;1298;51.252;6.802;2023-06-22T10:41:19;27.40;99.90
2577;DHT22;1298;51.252;6.802;2023-06-22T10:44:04;27.30;99.90
2577;DHT22;1298;51.252;6.802;2023-06-22T10:46:49;27.00;99.90
2577;DHT22;1298;51.252;6.802;2023-06-22T10:49:35;26.80;99.90
2577;DHT22;1298;51.252;6.802;2023-06-22T10:52:20;26.50;99.90
2577;DHT22;1298;51.252;6.802;2023-06-22T10:55:07;26.30;99.90
2577;DHT22;1298;51.252;6.802;2023-06-22T10:57:52;26.20;99.90
2577;DHT22;1298;51.252;6.802;2023-06-22T11:00:37;25.80;99.90
2577;DHT22;1298;51.252;6.802;2023-06-22T11:03:22;25.70;99.90
2577;DHT22;1298;51.252;6.802;2023-06-22T11:06:08;25.40;99.90
2577;DHT22;1298;51.252;6.802;2023-06-22T11:08:53;25.00;99.90
2577;DHT22;1298;51.252;6.802;2023-06-22T11:11:39;24.70;99.90
2577;DHT22;1298;51.252;6.802;2023-06-22T11:14:25;24.50;99.90
2577;DHT22;1298;51.252;6.802;2023-06-22T11:17:10;24.20;99.90
2577;DHT22;1298;51.252;6.802;2023-06-22T11:19:55;24.00;99.90
2577;DHT22;1298;51.252;6.802;2023-06-22T11:22:40;23.70;99.90
2577;DHT22;1298;51.252;6.802;2023-06-22T11:25:26;23.60;99.90
2577;DHT22;1298;51.252;6.802;2023-06-22T11:28:13;23.40;99.90
2577;DHT22;1298;51.252;6.802;2023-06-22T11:30:59;23.20;99.90
2577;DHT22;1298;51.252;6.802;2023-06-22T11:33:44;23.20;99.90
2577;DHT22;1298;51.252;6.802;2023-06-22T11:36:30;23.20;99.90
2577;DHT22;1298;51.252;6.802;2023-06-22T11:39:16;23.00;99.90
2577;DHT22;1298;51.252;6.802;2023-06-22T11:42:02;23.00;99.90
2577;DHT22;1298;51.252;6.802;2023-06-22T11:44:48;23.00;99.90
2577;DHT22;1298;51.252;6.802;2023-06-22T11:47:34;22.90;99.90
2577;DHT22;1298;51.252;6.802;2023-06-22T11:50:20;22.90;99.90
2577;DHT22;1298;51.252;6.802;2023-06-22T11:53:05;22.90;99.90
2577;DHT22;1298;51.252;6.802;2023-06-22T11:55:51;22.80;99.90
2577;DHT22;1298;51.252;6.802;2023-06-22T11:58:36;22.80;99.90
2577;DHT22;1298;51.252;6.802;2023-06-22T12:01:23;22.80;99.90
2577;DHT22;1298;51.252;6.802;2023-06-22T12:04:08;22.70;99.90
2577;DHT22;1298;51.252;6.802;2023-06-22T12:06:55;22.70;99.90
2577;DHT22;1298;51.252;6.802;2023-06-22T12:09:40;22.70;99.90
2577;DHT22;1298;51.252;6.802;2023-06-22T12:12:25;22.80;99.90
2577;DHT22;1298;51.252;6.802;2023-06-22T12:15:10;23.00;99.90
2577;DHT22;1298;51.252;6.802;2023-06-22T12:17:57;23.20;99.90
2577;DHT22;1298;51.252;6.802;2023-06-22T12:20:42;23.50;99.90
2577;DHT22;1298;51.252;6.802;2023-06-22T12:23:28;23.80;99.90
2577;DHT22;1298;51.252;6.802;2023-06-22T12:26:14;23.90;99.90
2577;DHT22;1298;51.252;6.802;2023-06-22T12:28:59;23.60;99.90
2577;DHT22;1298;51.252;6.802;2023-06-22T12:31:44;23.30;99.90
2577;DHT22;1298;51.252;6.802;2023-06-22T12:34:31;23.20;99.90
2577;DHT22;1298;51.252;6.802;2023-06-22T12:37:16;23.10;99.90
2577;DHT22;1298;51.252;6.802;2023-06-22T12:40:02;23.10;99.90
2577;DHT22;1298;51.252;6.802;2023-06-22T12:42:49;23.10;99.90
2577;DHT22;1298;51.252;6.802;2023-06-22T12:45:34;23.10;99.90
2577;DHT22;1298;51.252;6.802;2023-06-22T12:48:19;23.20;99.90
2577;DHT22;1298;51.252;6.802;2023-06-22T12:51:05;23.30;99.90
2577;DHT22;1298;51.252;6.802;2023-06-22T12:53:51;23.50;99.90
2577;DHT22;1298;51.252;6.802;2023-06-22T12:56:36;23.60;99.90
2577;DHT22;1298;51.252;6.802;2023-06-22T12:59:21;23.80;99.90
2577;DHT22;1298;51.252;6.802;2023-06-22T13:02:07;24.10;99.90
2577;DHT22;1298;51.252;6.802;2023-06-22T13:04:52;24.40;99.90
2577;DHT22;1298;51.252;6.802;2023-06-22T13:07:38;24.70;99.90
2577;DHT22;1298;51.252;6.802;2023-06-22T13:10:23;24.70;99.90
2577;DHT22;1298;51.252;6.802;2023-06-22T13:13:09;24.60;99.90
2577;DHT22;1298;51.252;6.802;2023-06-22T13:15:54;24.60;99.90
2577;DHT22;1298;51.252;6.802;2023-06-22T13:18:39;24.50;99.90
2577;DHT22;1298;51.252;6.802;2023-06-22T13:21:24;24.60;99.90
2577;DHT22;1298;51.252;6.802;2023-06-22T13:24:11;24.70;99.90
2577;DHT22;1298;51.252;6.802;2023-06-22T13:26:56;24.70;99.90
2577;DHT22;1298;51.252;6.802;2023-06-22T13:29:41;24.70;99.90
2577;DHT22;1298;51.252;6.802;2023-06-22T13:32:26;24.90;99.90
2577;DHT22;1298;51.252;6.802;2023-06-22T13:35:11;25.30;99.90
2577;DHT22;1298;51.252;6.802;2023-06-22T13:37:57;25.60;99.90
2577;DHT22;1298;51.252;6.802;2023-06-22T13:40:43;25.70;99.90
2577;DHT22;1298;51.252;6.802;2023-06-22T13:43:29;25.60;99.90
2577;DHT22;1298;51.252;6.802;2023-06-22T13:46:14;25.50;99.90
2577;DHT22;1298;51.252;6.802;2023-06-22T13:48:59;25.50;99.90
2577;DHT22;1298;51.252;6.802;2023-06-22T13:51:44;25.40;99.90
2577;DHT22;1298;51.252;6.802;2023-06-22T13:54:32;25.30;99.90
2577;DHT22;1298;51.252;6.802;2023-06-22T13:57:18;25.10;99.90
2577;DHT22;1298;51.252;6.802;2023-06-22T14:00:04;25.00;99.90
2577;DHT22;1298;51.252;6.802;2023-06-22T14:02:50;24.80;99.90
2577;DHT22;1298;51.252;6.802;2023-06-22T14:05:35;24.70;99.90
2577;DHT22;1298;51.252;6.802;2023-06-22T14:08:21;24.60;99.90
2577;DHT22;1298;51.252;6.802;2023-06-22T14:11:07;24.50;99.90
2577;DHT22;1298;51.252;6.802;2023-06-22T14:13:54;24.50;99.90
2577;DHT22;1298;51.252;6.802;2023-06-22T14:16:39;24.40;99.90
2577;DHT22;1298;51.252;6.802;2023-06-22T14:19:25;24.40;99.90
2577;DHT22;1298;51.252;6.802;2023-06-22T14:22:10;24.30;99.90
2577;DHT22;1298;51.252;6.802;2023-06-22T14:24:55;24.30;99.90
2577;DHT22;1298;51.252;6.802;2023-06-22T14:27:41;24.20;99.90
2577;DHT22;1298;51.252;6.802;2023-06-22T14:30:29;24.30;99.90
2577;DHT22;1298;51.252;6.802;2023-06-22T14:33:14;24.20;99.90
2577;DHT22;1298;51.252;6.802;2023-06-22T14:36:00;24.20;99.90
2577;DHT22;1298;51.252;6.802;2023-06-22T14:38:45;24.10;99.90
2577;DHT22;1298;51.252;6.802;2023-06-22T14:41:31;24.00;99.90
2577;DHT22;1298;51.252;6.802;2023-06-22T14:44:16;23.80;99.90
2577;DHT22;1298;51.252;6.802;2023-06-22T14:47:03;23.60;99.90
2577;DHT22;1298;51.252;6.802;2023-06-22T14:49:48;23.50;99.90
2577;DHT22;1298;51.252;6.802;2023-06-22T14:52:33;23.50;99.90
2577;DHT22;1298;51.252;6.802;2023-06-22T14:55:19;23.60;99.90
2577;DHT22;1298;51.252;6.802;2023-06-22T14:58:04;23.70;99.90
2577;DHT22;1298;51.252;6.802;2023-06-22T15:00:49;23.80;99.90
2577;DHT22;1298;51.252;6.802;2023-06-22T15:03:36;23.80;99.90
2577;DHT22;1298;51.252;6.802;2023-06-22T15:06:22;23.80;99.90
2577;DHT22;1298;51.252;6.802;2023-06-22T15:09:07;23.70;99.90
2577;DHT22;1298;51.252;6.802;2023-06-22T15:11:52;23.80;99.90
2577;DHT22;1298;51.252;6.802;2023-06-22T15:14:38;23.70;99.90
2577;DHT22;1298;51.252;6.802;2023-06-22T15:17:23;23.70;99.90
2577;DHT22;1298;51.252;6.802;2023-06-22T15:20:14;23.80;99.90
2577;DHT22;1298;51.252;6.802;2023-06-22T15:22:59;23.80;99.90
2577;DHT22;1298;51.252;6.802;2023-06-22T15:25:44;23.80;99.90
2577;DHT22;1298;51.252;6.802;2023-06-22T15:28:30;23.90;99.90
2577;DHT22;1298;51.252;6.802;2023-06-22T15:31:16;23.90;99.90
2577;DHT22;1298;51.252;6.802;2023-06-22T15:34:01;23.90;99.90
2577;DHT22;1298;51.252;6.802;2023-06-22T15:36:48;23.80;99.90
2577;DHT22;1298;51.252;6.802;2023-06-22T15:39:34;23.80;99.90
2577;DHT22;1298;51.252;6.802;2023-06-22T15:42:19;23.70;99.90
2577;DHT22;1298;51.252;6.802;2023-06-22T15:45:04;23.50;99.90
2577;DHT22;1298;51.252;6.802;2023-06-22T15:47:50;23.40;99.90
2577;DHT22;1298;51.252;6.802;2023-06-22T15:50:35;23.20;99.90
2577;DHT22;1298;51.252;6.802;2023-06-22T15:53:21;23.10;99.90
2577;DHT22;1298;51.252;6.802;2023-06-22T15:56:06;23.00;99.90
2577;DHT22;1298;51.252;6.802;2023-06-22T15:58:53;23.00;99.90
2577;DHT22;1298;51.252;6.802;2023-06-22T16:01:40;22.90;99.90
2577;DHT22;1298;51.252;6.802;2023-06-22T16:04:26;22.80;99.90
2577;DHT22;1298;51.252;6.802;2023-06-22T16:07:11;22.70;99.90
2577;DHT22;1298;51.252;6.802;2023-06-22T16:09:58;22.50;99.90
2577;DHT22;1298;51.252;6.802;2023-06-22T16:12:43;22.40;99.90
2577;DHT22;1298;51.252;6.802;2023-06-22T16:15:29;22.30;99.90
2577;DHT22;1298;51.252;6.802;2023-06-22T16:18:14;22.30;99.90
2577;DHT22;1298;51.252;6.802;2023-06-22T16:20:59;22.20;99.90
2577;DHT22;1298;51.252;6.802;2023-06-22T16:23:45;22.20;99.90
2577;DHT22;1298;51.252;6.802;2023-06-22T16:26:37;22.20;99.90
2577;DHT22;1298;51.252;6.802;2023-06-22T16:29:23;22.10;99.90
2577;DHT22;1298;51.252;6.802;2023-06-22T16:32:08;22.10;99.90
2577;DHT22;1298;51.252;6.802;2023-06-22T16:34:53;22.00;99.90
2577;DHT22;1298;51.252;6.802;2023-06-22T16:37:39;22.00;99.90
2577;DHT22;1298;51.252;6.802;2023-06-22T16:40:24;21.90;99.90
2577;DHT22;1298;51.252;6.802;2023-06-22T16:43:11;21.90;99.90
2577;DHT22;1298;51.252;6.802;2023-06-22T16:45:56;21.90;99.90
2577;DHT22;1298;51.252;6.802;2023-06-22T16:48:41;21.80;99.90
2577;DHT22;1298;51.252;6.802;2023-06-22T16:51:26;21.70;99.90
2577;DHT22;1298;51.252;6.802;2023-06-22T16:54:11;21.70;99.90
2577;DHT22;1298;51.252;6.802;2023-06-22T16:56:58;21.50;99.90
2577;DHT22;1298;51.252;6.802;2023-06-22T16:59:45;21.50;99.90
2577;DHT22;1298;51.252;6.802;2023-06-22T17:02:31;21.50;99.90
2577;DHT22;1298;51.252;6.802;2023-06-22T17:05:17;21.40;99.90
2577;DHT22;1298;51.252;6.802;2023-06-22T17:08:03;21.30;99.90
2577;DHT22;1298;51.252;6.802;2023-06-22T17:10:49;21.10;99.90
2577;DHT22;1298;51.252;6.802;2023-06-22T17:13:35;21.10;99.90
2577;DHT22;1298;51.252;6.802;2023-06-22T17:16:21;21.10;99.90
2577;DHT22;1298;51.252;6.802;2023-06-22T17:19:07;21.00;99.90
2577;DHT22;1298;51.252;6.802;2023-06-22T17:21:53;20.90;99.90
2577;DHT22;1298;51.252;6.802;2023-06-22T17:24:39;20.90;99.90
2577;DHT22;1298;51.252;6.802;2023-06-22T17:27:28;20.80;99.90
2577;DHT22;1298;51.252;6.802;2023-06-22T17:30:13;20.90;99.90
2577;DHT22;1298;51.252;6.802;2023-06-22T17:33:02;20.80;99.90
2577;DHT22;1298;51.252;6.802;2023-06-22T17:35:48;20.90;99.90
2577;DHT22;1298;51.252;6.802;2023-06-22T17:38:35;20.80;99.90
2577;DHT22;1298;51.252;6.802;2023-06-22T17:41:21;20.70;99.90
2577;DHT22;1298;51.252;6.802;2023-06-22T17:44:06;20.60;99.90
2577;DHT22;1298;51.252;6.802;2023-06-22T17:46:53;20.60;99.90
2577;DHT22;1298;51.252;6.802;2023-06-22T17:49:39;20.60;99.90
2577;DHT22;1298;51.252;6.802;2023-06-22T17:52:26;20.60;99.90
2577;DHT22;1298;51.252;6.802;2023-06-22T17:55:12;20.60;99.90
2577;DHT22;1298;51.252;6.802;2023-06-22T17:57:58;20.60;99.90
2577;DHT22;1298;51.252;6.802;2023-06-22T18:00:45;20.60;99.90
2577;DHT22;1298;51.252;6.802;2023-06-22T18:03:31;20.60;99.90